Time;durP1;ratioP1;P1;durP2;ratioP2;P2;SDS_P1;SDS_P2;PMS_P1;PMS_P2;Temp;Humidity;BMP_temperature;BMP_pressure;BME280_temperature;BME280_humidity;BME280_pressure;Samples;Min_cycle;Max_cycle;Signal;HPM_P1;HPM_P2
2023/05/08 00:01:10;;;;;;;14.52;11.35;;;13.30;99.90;;;;;;5009115;28;20392;-81
2023/05/08 00:03:36;;;;;;;14.35;12.63;;;13.30;99.90;;;;;;5026706;28;20500;-81
2023/05/08 00:06:05;;;;;;;12.18;10.30;;;13.30;99.90;;;;;;5013359;28;20037;-81
2023/05/08 00:08:31;;;;;;;15.38;12.40;;;13.20;99.90;;;;;;5041643;28;20033;-81
2023/05/08 00:10:57;;;;;;;15.93;11.85;;;13.30;99.90;;;;;;5030246;28;20075;-81
2023/05/08 00:13:22;;;;;;;16.73;11.93;;;13.20;99.90;;;;;;5011905;28;20046;-81
2023/05/08 00:15:48;;;;;;;13.15;10.93;;;13.20;99.90;;;;;;5019215;28;20045;-81
2023/05/08 00:18:15;;;;;;;14.90;12.25;;;13.20;99.90;;;;;;5017949;28;20073;-81
2023/05/08 00:20:41;;;;;;;15.02;11.63;;;13.20;99.90;;;;;;5030245;28;20053;-81
2023/05/08 00:23:06;;;;;;;15.23;12.15;;;13.20;99.90;;;;;;5030569;28;20119;-81
2023/05/08 00:25:32;;;;;;;15.82;13.13;;;13.20;99.90;;;;;;5015771;28;20046;-81
2023/05/08 00:27:59;;;;;;;15.55;11.80;;;13.10;99.90;;;;;;5015977;28;20116;-81
2023/05/08 00:30:25;;;;;;;16.33;12.40;;;13.10;99.90;;;;;;5040140;28;20067;-81
2023/05/08 00:32:51;;;;;;;15.82;12.63;;;13.10;99.90;;;;;;5033310;28;20049;-81
2023/05/08 00:35:17;;;;;;;15.27;11.35;;;13.10;99.90;;;;;;5034692;28;20045;-80
2023/05/08 00:37:43;;;;;;;16.52;12.95;;;13.10;99.90;;;;;;5016194;28;20393;-81
2023/05/08 00:40:10;;;;;;;15.88;12.25;;;13.10;99.90;;;;;;5033723;28;20056;-81
2023/05/08 00:42:36;;;;;;;17.23;13.20;;;13.10;99.90;;;;;;5033742;28;20045;-80
2023/05/08 00:45:02;;;;;;;15.25;12.25;;;13.10;99.90;;;;;;5021299;28;20050;-81
2023/05/08 00:47:30;;;;;;;15.32;12.82;;;13.00;99.90;;;;;;5039449;28;20057;-80
2023/05/08 00:49:57;;;;;;;16.83;13.55;;;13.00;99.90;;;;;;5015563;28;20480;-81
2023/05/08 00:52:24;;;;;;;17.67;12.68;;;13.00;99.90;;;;;;5015942;28;20072;-81
2023/05/08 00:54:49;;;;;;;16.45;12.40;;;13.00;99.90;;;;;;5033817;28;20104;-81
2023/05/08 00:57:15;;;;;;;15.77;12.65;;;13.00;99.90;;;;;;5017053;28;20049;-81
2023/05/08 00:59:44;;;;;;;17.00;13.00;;;12.90;99.90;;;;;;5033334;28;20041;-81
2023/05/08 01:02:10;;;;;;;16.67;12.27;;;12.90;99.90;;;;;;5032887;28;20054;-81
2023/05/08 01:04:36;;;;;;;16.33;12.68;;;12.90;99.90;;;;;;5015911;28;20076;-80
2023/05/08 01:07:04;;;;;;;15.10;11.45;;;12.90;99.90;;;;;;5015452;28;20375;-81
2023/05/08 01:09:30;;;;;;;13.32;10.68;;;12.90;99.90;;;;;;5028792;28;20044;-81
2023/05/08 01:12:04;;;;;;;14.88;12.05;;;12.90;99.90;;;;;;5015243;28;20384;-81
2023/05/08 01:14:38;;;;;;;15.45;11.93;;;12.80;99.90;;;;;;5033239;28;20191;-81
2023/05/08 01:17:29;;;;;;;15.98;12.40;;;12.80;99.90;;;;;;5019499;28;20045;-81
2023/05/08 01:20:17;;;;;;;14.45;11.73;;;12.80;99.90;;;;;;5020426;28;20042;-81
2023/05/08 01:23:18;;;;;;;14.98;12.57;;;12.90;99.90;;;;;;5034097;28;20087;-81
2023/05/08 01:26:04;;;;;;;16.58;13.25;;;12.70;99.90;;;;;;4969284;28;20054;-81
2023/05/08 01:28:49;;;;;;;15.88;12.20;;;12.70;99.90;;;;;;4987159;28;20105;-81
2023/05/08 01:31:45;;;;;;;16.90;13.50;;;12.70;99.90;;;;;;4954755;28;20048;-80
2023/05/08 01:34:35;;;;;;;15.68;13.05;;;12.60;99.90;;;;;;4981011;28;20558;-81
2023/05/08 01:37:13;;;;;;;15.95;12.68;;;12.60;99.90;;;;;;4961645;28;20493;-81
2023/05/08 01:40:09;;;;;;;16.70;13.00;;;12.50;99.90;;;;;;4986582;28;20054;-81
2023/05/08 01:42:57;;;;;;;15.38;12.95;;;12.50;99.90;;;;;;4957231;28;20166;-80
2023/05/08 01:45:29;;;;;;;15.93;12.57;;;12.40;99.90;;;;;;4966971;28;20057;-80
2023/05/08 01:48:09;;;;;;;16.83;13.00;;;12.40;99.90;;;;;;4977078;28;20092;-80
2023/05/08 01:50:54;;;;;;;16.33;12.77;;;12.40;99.90;;;;;;4963733;28;20066;-81
2023/05/08 01:53:27;;;;;;;17.88;13.32;;;12.30;99.90;;;;;;4957437;28;20061;-81
2023/05/08 01:55:59;;;;;;;16.80;12.80;;;12.30;99.90;;;;;;4986788;28;20038;-81
2023/05/08 01:58:30;;;;;;;15.63;12.15;;;12.20;99.90;;;;;;4968269;28;20324;-81
2023/05/08 02:00:58;;;;;;;17.63;13.70;;;12.20;99.90;;;;;;5020298;28;20050;-81
2023/05/08 02:03:25;;;;;;;21.27;14.32;;;12.20;99.90;;;;;;5031692;28;20064;-81
2023/05/08 02:05:54;;;;;;;17.88;14.02;;;12.20;99.90;;;;;;5036647;28;20076;-81
2023/05/08 02:08:21;;;;;;;17.95;13.40;;;12.10;99.90;;;;;;5038447;28;20045;-81
2023/05/08 02:10:49;;;;;;;18.23;14.00;;;12.00;99.90;;;;;;5015424;28;20048;-81
2023/05/08 02:13:18;;;;;;;17.35;14.23;;;12.00;99.90;;;;;;5014483;28;20116;-81
2023/05/08 02:15:49;;;;;;;18.58;13.98;;;12.00;99.90;;;;;;5032904;28;20038;-81
2023/05/08 02:18:20;;;;;;;16.65;13.20;;;11.90;99.90;;;;;;5016576;28;20119;-81
2023/05/08 02:20:48;;;;;;;18.80;14.45;;;11.90;99.90;;;;;;5033459;28;20507;-81
2023/05/08 02:23:15;;;;;;;17.92;14.18;;;11.90;99.90;;;;;;5013734;28;20049;-81
2023/05/08 02:25:43;;;;;;;17.50;13.45;;;11.90;99.90;;;;;;5018199;28;20037;-81
2023/05/08 02:28:10;;;;;;;16.98;13.07;;;11.90;99.90;;;;;;5038147;28;20121;-81
2023/05/08 02:30:36;;;;;;;17.90;12.55;;;11.80;99.90;;;;;;5018512;28;20125;-81
2023/05/08 02:33:04;;;;;;;17.25;13.82;;;11.80;99.90;;;;;;5037700;28;20091;-81
2023/05/08 02:35:31;;;;;;;19.75;14.48;;;11.80;99.90;;;;;;5013904;28;20045;-81
2023/05/08 02:38:00;;;;;;;17.65;13.70;;;11.80;99.90;;;;;;5034859;28;20042;-81
2023/05/08 02:40:31;;;;;;;18.58;14.38;;;11.80;99.90;;;;;;5024490;28;20127;-81
2023/05/08 02:42:56;;;;;;;18.33;13.90;;;11.80;99.90;;;;;;5013413;28;20040;-81
2023/05/08 02:45:27;;;;;;;18.00;13.93;;;11.80;99.90;;;;;;5032249;28;20496;-81
2023/05/08 02:48:03;;;;;;;19.15;13.95;;;11.80;99.90;;;;;;5025754;28;20051;-81
2023/05/08 02:50:44;;;;;;;17.88;14.40;;;11.70;99.90;;;;;;5019954;28;20077;-81
2023/05/08 02:53:40;;;;;;;20.80;15.10;;;11.70;99.90;;;;;;5017038;28;20099;-81
2023/05/08 02:56:20;;;;;;;20.10;14.15;;;11.60;99.90;;;;;;5027106;28;20053;-81
2023/05/08 02:58:58;;;;;;;16.08;12.75;;;11.60;99.90;;;;;;5036982;28;20034;-81
2023/05/08 03:01:28;;;;;;;16.27;12.45;;;11.60;99.90;;;;;;5031563;28;20045;-81
2023/05/08 03:04:03;;;;;;;17.35;13.85;;;11.70;99.90;;;;;;5013714;28;20396;-81
2023/05/08 03:06:35;;;;;;;27.83;14.95;;;11.60;99.90;;;;;;5027800;28;20042;-81
2023/05/08 03:09:03;;;;;;;19.77;14.57;;;11.50;99.90;;;;;;5035422;28;20068;-81
2023/05/08 03:11:37;;;;;;;17.58;13.68;;;11.50;99.90;;;;;;5016280;28;20107;-81
2023/05/08 03:14:05;;;;;;;;;;;11.50;99.90;;;;;;5023630;28;20052;-81
2023/05/08 03:16:34;;;;;;;16.48;12.50;;;11.50;99.90;;;;;;5028062;28;20275;-80
2023/05/08 03:19:03;;;;;;;16.20;12.15;;;11.40;99.90;;;;;;5016286;28;20172;-80
2023/05/08 03:21:30;;;;;;;19.75;14.73;;;11.50;99.90;;;;;;5014499;28;20045;-81
2023/05/08 03:23:59;;;;;;;18.73;13.90;;;11.60;99.90;;;;;;5031845;28;20040;-81
2023/05/08 03:26:25;;;;;;;16.98;13.30;;;11.40;99.90;;;;;;5018481;28;20054;-80
2023/05/08 03:28:53;;;;;;;18.10;13.38;;;11.40;99.90;;;;;;5017592;28;20048;-81
2023/05/08 03:31:20;;;;;;;18.88;13.27;;;11.40;99.90;;;;;;5032203;28;20547;-81
2023/05/08 03:33:47;;;;;;;20.80;14.35;;;11.40;99.90;;;;;;5018218;28;20045;-81
2023/05/08 03:36:14;;;;;;;16.67;12.48;;;11.30;99.90;;;;;;5017336;28;20049;-80
2023/05/08 03:38:41;;;;;;;17.67;14.10;;;11.30;99.90;;;;;;5021835;28;20045;-81
2023/05/08 03:41:06;;;;;;;19.20;14.40;;;11.30;99.90;;;;;;5014355;28;20682;-81
2023/05/08 03:43:35;;;;;;;18.23;14.18;;;11.30;99.90;;;;;;5029634;28;20128;-81
2023/05/08 03:46:01;;;;;;;19.48;14.63;;;11.20;99.90;;;;;;5019744;28;20072;-81
2023/05/08 03:48:32;;;;;;;18.88;13.93;;;11.20;99.90;;;;;;5013051;28;20073;-81
2023/05/08 03:50:59;;;;;;;19.30;14.82;;;11.40;99.90;;;;;;5043431;28;20040;-81
2023/05/08 03:53:25;;;;;;;17.52;13.40;;;11.20;99.90;;;;;;5012649;28;20128;-81
2023/05/08 03:55:51;;;;;;;16.83;12.82;;;11.20;99.90;;;;;;5016284;28;20116;-81
2023/05/08 03:58:44;;;;;;;17.98;14.27;;;11.20;99.90;;;;;;5014213;28;20056;-81
2023/05/08 04:01:39;;;;;;;17.42;12.63;;;11.20;99.90;;;;;;4964045;28;20051;-81
2023/05/08 04:04:36;;;;;;;16.45;12.02;;;11.10;99.90;;;;;;4964252;28;20121;-81
2023/05/08 04:07:25;;;;;;;16.73;11.93;;;11.10;99.90;;;;;;4968020;28;20059;-81
2023/05/08 04:10:10;;;;;;;15.68;12.57;;;11.00;99.90;;;;;;4964401;28;20474;-81
2023/05/08 04:13:00;;;;;;;18.48;13.43;;;11.00;99.90;;;;;;4969372;28;20064;-81
2023/05/08 04:15:30;;;;;;;18.08;14.23;;;11.00;99.90;;;;;;4955630;28;20042;-81
2023/05/08 04:18:03;;;;;;;16.98;13.32;;;11.00;99.90;;;;;;4968916;28;20046;-81
2023/05/08 04:20:31;;;;;;;17.47;13.77;;;11.30;99.90;;;;;;4938271;28;20070;-81
2023/05/08 04:22:58;;;;;;;19.10;13.10;;;11.00;99.90;;;;;;4956120;28;20038;-81
2023/05/08 04:25:25;;;;;;;15.68;12.13;;;11.00;99.90;;;;;;4970300;28;20565;-81
2023/05/08 04:27:52;;;;;;;19.00;12.85;;;10.90;99.90;;;;;;4968634;28;20031;-81
2023/05/08 04:30:18;;;;;;;17.67;12.93;;;10.90;99.90;;;;;;4974922;28;20050;-81
2023/05/08 04:32:44;;;;;;;17.38;13.18;;;10.90;99.90;;;;;;4970542;28;20561;-81
2023/05/08 04:35:12;;;;;;;16.83;12.25;;;10.90;99.90;;;;;;4973572;28;20118;-81
2023/05/08 04:37:38;;;;;;;15.93;12.15;;;11.00;99.90;;;;;;4964389;28;20072;-81
2023/05/08 04:40:04;;;;;;;17.05;12.63;;;10.90;99.90;;;;;;5022104;28;20052;-81
2023/05/08 04:42:30;;;;;;;16.15;12.65;;;10.90;99.90;;;;;;5036952;28;20061;-81
2023/05/08 04:44:56;;;;;;;17.55;13.10;;;11.20;99.90;;;;;;5016334;28;20084;-81
2023/05/08 04:47:22;;;;;;;15.82;12.55;;;10.90;99.90;;;;;;5013069;28;20045;-81
2023/05/08 04:49:49;;;;;;;16.63;12.30;;;10.90;99.90;;;;;;5036398;28;20530;-81
2023/05/08 04:52:14;;;;;;;18.83;12.50;;;10.90;99.90;;;;;;5017991;28;20034;-81
2023/05/08 04:54:40;;;;;;;14.40;11.30;;;10.90;99.90;;;;;;5038196;28;20387;-81
2023/05/08 04:57:07;;;;;;;15.75;12.30;;;10.90;99.90;;;;;;5004435;28;20038;-81
2023/05/08 04:59:33;;;;;;;16.83;12.43;;;10.90;99.90;;;;;;5021783;28;20056;-81
2023/05/08 05:02:01;;;;;;;14.63;11.55;;;10.90;99.90;;;;;;5017500;28;20053;-81
2023/05/08 05:04:27;;;;;;;17.58;12.57;;;10.90;99.90;;;;;;5023688;28;20452;-81
2023/05/08 05:06:53;;;;;;;15.57;11.85;;;10.90;99.90;;;;;;5012333;28;20052;-81
2023/05/08 05:09:19;;;;;;;19.80;12.52;;;10.90;99.90;;;;;;5037063;28;20037;-81
2023/05/08 05:11:45;;;;;;;15.27;11.10;;;10.90;99.90;;;;;;5042181;28;20396;-81
2023/05/08 05:14:11;;;;;;;15.48;11.93;;;11.10;99.90;;;;;;5018194;28;20029;-81
2023/05/08 05:16:36;;;;;;;17.00;13.20;;;10.90;99.90;;;;;;5037093;28;20044;-83
2023/05/08 05:19:03;;;;;;;16.63;12.80;;;11.00;99.90;;;;;;5024722;28;20049;-82
2023/05/08 05:21:29;;;;;;;16.27;12.30;;;10.90;99.90;;;;;;5028142;28;20080;-82
2023/05/08 05:23:55;;;;;;;16.60;11.57;;;11.00;99.90;;;;;;5047209;28;20504;-81
2023/05/08 05:26:20;;;;;;;18.55;13.27;;;10.90;99.90;;;;;;5044576;28;20045;-81
2023/05/08 05:28:47;;;;;;;16.17;13.10;;;11.00;99.90;;;;;;5021844;28;20488;-81
2023/05/08 05:31:13;;;;;;;16.50;11.77;;;11.00;99.90;;;;;;5028398;28;20148;-82
2023/05/08 05:33:39;;;;;;;17.20;12.52;;;11.00;99.90;;;;;;5037416;28;20531;-82
2023/05/08 05:36:06;;;;;;;17.52;12.00;;;11.00;99.90;;;;;;5016592;28;20045;-81
2023/05/08 05:38:32;;;;;;;17.67;12.90;;;11.00;99.90;;;;;;5028424;28;20771;-86
2023/05/08 05:40:58;;;;;;;19.50;14.50;;;11.00;99.90;;;;;;5044829;28;20037;-80
2023/05/08 05:43:23;;;;;;;14.70;11.70;;;11.00;99.90;;;;;;5045494;28;20037;-80
2023/05/08 05:45:49;;;;;;;15.73;12.57;;;11.00;99.90;;;;;;5023644;28;20654;-79
2023/05/08 05:48:15;;;;;;;14.57;12.18;;;11.00;99.90;;;;;;5037937;28;20029;-80
2023/05/08 05:50:41;;;;;;;17.92;14.30;;;11.10;99.90;;;;;;5032674;28;20488;-81
2023/05/08 05:53:06;;;;;;;17.02;13.50;;;11.10;99.90;;;;;;5018725;28;20090;-81
2023/05/08 05:55:33;;;;;;;16.85;12.98;;;11.10;99.90;;;;;;5024147;28;20052;-80
2023/05/08 05:57:58;;;;;;;19.30;12.80;;;11.10;99.90;;;;;;5018227;28;20045;-82
2023/05/08 06:00:24;;;;;;;17.77;12.07;;;11.10;99.90;;;;;;5010698;28;20056;-85
2023/05/08 06:02:50;;;;;;;17.20;12.90;;;11.20;99.90;;;;;;5022167;28;20128;-84
2023/05/08 06:05:17;;;;;;;16.33;12.18;;;11.20;99.90;;;;;;5030834;28;20041;-84
2023/05/08 06:07:43;;;;;;;16.23;12.02;;;11.20;99.90;;;;;;5042436;28;20044;-85
2023/05/08 06:10:09;;;;;;;13.00;9.80;;;11.30;99.90;;;;;;5040302;28;20033;-84
2023/05/08 06:12:35;;;;;;;15.07;12.25;;;11.30;99.90;;;;;;5022822;28;20044;-85
2023/05/08 06:15:02;;;;;;;16.05;12.35;;;11.30;99.90;;;;;;5039444;28;20045;-84
2023/05/08 06:17:27;;;;;;;15.70;12.27;;;11.30;99.90;;;;;;5015382;28;20045;-83
2023/05/08 06:19:55;;;;;;;16.25;12.65;;;11.40;99.90;;;;;;5016271;28;20377;-83
2023/05/08 06:22:22;;;;;;;15.55;12.13;;;11.40;99.90;;;;;;5003433;28;20522;-83
2023/05/08 06:24:48;;;;;;;16.45;12.18;;;11.40;99.90;;;;;;5025517;28;20284;-85
2023/05/08 06:27:14;;;;;;;16.20;11.88;;;11.30;99.90;;;;;;5016785;28;20037;-83
2023/05/08 06:29:43;;;;;;;15.90;12.15;;;11.40;99.90;;;;;;5030174;28;20515;-83
2023/05/08 06:32:09;;;;;;;15.35;12.82;;;11.40;99.90;;;;;;5003632;28;20049;-82
2023/05/08 06:34:36;;;;;;;17.38;12.95;;;11.40;99.90;;;;;;5022185;28;20041;-84
2023/05/08 06:37:02;;;;;;;16.67;12.02;;;11.60;99.90;;;;;;5018681;28;20037;-83
2023/05/08 06:39:28;;;;;;;16.17;12.73;;;11.50;99.90;;;;;;5037149;28;20045;-82
2023/05/08 06:41:54;;;;;;;16.02;12.35;;;11.60;99.90;;;;;;5039635;28;20032;-82
2023/05/08 06:44:20;;;;;;;16.55;12.10;;;11.70;99.90;;;;;;5009173;28;20652;-83
2023/05/08 06:46:45;;;;;;;15.10;12.27;;;11.80;99.90;;;;;;5036444;28;20044;-83
2023/05/08 06:49:11;;;;;;;17.15;12.43;;;11.90;99.90;;;;;;5032324;28;20419;-82
2023/05/08 06:51:38;;;;;;;14.77;11.65;;;12.00;99.90;;;;;;5018641;28;20051;-84
2023/05/08 06:54:07;;;;;;;15.98;12.10;;;12.30;99.90;;;;;;5031960;28;20038;-83
2023/05/08 06:56:35;;;;;;;15.85;11.98;;;12.10;99.90;;;;;;5032877;28;20045;-82
2023/05/08 06:59:01;;;;;;;17.05;12.70;;;12.20;99.90;;;;;;5026156;28;20040;-81
2023/05/08 07:01:27;;;;;;;13.93;11.40;;;12.20;99.90;;;;;;5040350;28;20045;-80
2023/05/08 07:03:52;;;;;;;15.77;12.27;;;12.30;99.90;;;;;;5036754;28;20418;-80
2023/05/08 07:06:18;;;;;;;14.63;11.55;;;12.30;99.90;;;;;;5029797;28;20079;-80
2023/05/08 07:08:44;;;;;;;14.45;12.07;;;12.40;99.90;;;;;;5048588;28;20108;-80
2023/05/08 07:11:10;;;;;;;14.75;12.02;;;12.50;99.90;;;;;;5021490;28;20064;-81
2023/05/08 07:13:36;;;;;;;14.48;11.60;;;12.60;99.90;;;;;;5039280;28;20025;-81
2023/05/08 07:16:02;;;;;;;15.43;12.52;;;12.60;99.90;;;;;;5033723;28;20113;-80
2023/05/08 07:18:28;;;;;;;19.92;12.20;;;12.70;99.90;;;;;;5025304;28;20110;-80
2023/05/08 07:20:53;;;;;;;16.60;12.77;;;12.80;99.90;;;;;;5010858;28;20033;-80
2023/05/08 07:23:20;;;;;;;16.50;12.60;;;12.90;99.90;;;;;;5032961;28;20496;-80
2023/05/08 07:25:46;;;;;;;14.65;12.23;;;13.00;99.90;;;;;;5033034;28;20393;-81
2023/05/08 07:28:12;;;;;;;17.77;12.98;;;13.10;99.90;;;;;;5006263;28;20045;-80
2023/05/08 07:30:38;;;;;;;14.93;12.57;;;13.20;99.90;;;;;;5015541;28;20060;-80
2023/05/08 07:33:04;;;;;;;16.48;11.95;;;13.20;99.90;;;;;;5022110;28;20025;-81
2023/05/08 07:35:29;;;;;;;15.60;12.50;;;13.40;99.90;;;;;;5038801;28;20060;-81
2023/05/08 07:37:55;;;;;;;17.77;12.93;;;13.50;99.90;;;;;;5030272;28;20037;-80
2023/05/08 07:40:21;;;;;;;15.00;12.10;;;13.50;99.90;;;;;;5034267;28;20128;-80
2023/05/08 07:42:47;;;;;;;13.55;11.27;;;13.60;99.90;;;;;;5028714;28;20037;-83
2023/05/08 07:45:13;;;;;;;14.93;12.60;;;13.70;99.90;;;;;;5026613;28;20564;-84
2023/05/08 07:47:49;;;;;;;17.00;11.90;;;13.80;99.90;;;;;;5030133;28;20412;-85
2023/05/08 07:50:15;;;;;;;16.27;12.70;;;13.80;99.90;;;;;;5033160;28;20045;-86
2023/05/08 07:52:41;;;;;;;14.40;12.55;;;13.90;99.90;;;;;;5006282;28;20041;-86
2023/05/08 07:55:07;;;;;;;15.10;12.10;;;14.00;99.90;;;;;;5014412;28;20430;-86
2023/05/08 07:57:41;;;;;;;16.63;12.50;;;14.10;99.90;;;;;;5033346;28;20041;-85
2023/05/08 08:00:09;;;;;;;14.00;11.85;;;14.30;99.90;;;;;;5035071;28;20099;-86
2023/05/08 08:02:34;;;;;;;15.00;12.65;;;14.40;99.90;;;;;;5023085;28;20096;-86
2023/05/08 08:05:00;;;;;;;16.30;11.88;;;14.40;99.90;;;;;;5018642;28;20045;-86
2023/05/08 08:07:26;;;;;;;13.25;11.68;;;14.50;99.90;;;;;;5015055;28;20041;-85
2023/05/08 08:09:52;;;;;;;14.80;12.88;;;14.50;99.90;;;;;;5011976;28;20052;-86
2023/05/08 08:12:20;;;;;;;13.55;11.48;;;14.60;99.90;;;;;;5011102;28;20436;-85
2023/05/08 08:14:46;;;;;;;14.95;12.20;;;14.70;99.90;;;;;;5016097;28;20107;-85
2023/05/08 08:17:11;;;;;;;16.13;12.63;;;14.80;99.90;;;;;;5010923;28;20464;-86
2023/05/08 08:19:37;;;;;;;16.67;13.07;;;14.80;99.90;;;;;;5012825;28;20042;-86
2023/05/08 08:22:03;;;;;;;14.90;12.82;;;14.90;99.90;;;;;;5011275;28;20480;-85
2023/05/08 08:24:28;;;;;;;14.15;12.15;;;15.00;99.90;;;;;;5016571;28;20049;-86
2023/05/08 08:26:54;;;;;;;15.52;12.95;;;15.10;99.90;;;;;;5012307;28;20045;-85
2023/05/08 08:29:20;;;;;;;15.27;12.35;;;15.20;99.90;;;;;;5013029;28;20080;-84
2023/05/08 08:31:46;;;;;;;15.93;12.85;;;15.30;99.90;;;;;;5015087;28;20077;-85
2023/05/08 08:34:12;;;;;;;13.38;11.48;;;15.40;99.90;;;;;;5013063;28;20065;-85
2023/05/08 08:36:38;;;;;;;13.27;11.88;;;15.50;99.90;;;;;;5019572;28;20048;-86
2023/05/08 08:39:04;;;;;;;16.15;11.75;;;15.60;99.90;;;;;;5011186;28;20041;-87
2023/05/08 08:41:32;;;;;;;15.65;11.30;;;15.60;99.90;;;;;;5016987;28;20171;-84
2023/05/08 08:43:58;;;;;;;13.57;10.98;;;15.60;99.90;;;;;;5019364;28;20049;-85
2023/05/08 08:46:27;;;;;;;13.43;11.88;;;15.60;99.90;;;;;;5011686;28;20041;-84
2023/05/08 08:48:55;;;;;;;15.38;12.05;;;15.70;99.90;;;;;;5020652;28;20392;-85
2023/05/08 08:51:27;;;;;;;16.20;11.90;;;15.80;99.90;;;;;;5015913;28;20041;-84
2023/05/08 08:54:09;;;;;;;13.88;11.77;;;15.80;99.90;;;;;;5024951;28;20046;-85
2023/05/08 08:56:38;;;;;;;14.32;12.45;;;15.90;99.90;;;;;;5021648;28;20038;-85
2023/05/08 08:59:04;;;;;;;15.45;12.98;;;15.90;99.90;;;;;;5023367;28;20041;-85
2023/05/08 09:01:34;;;;;;;17.13;12.57;;;16.10;99.90;;;;;;5014303;28;20045;-84
2023/05/08 09:04:01;;;;;;;16.27;13.15;;;16.30;99.90;;;;;;4999480;28;20119;-84
2023/05/08 09:06:27;;;;;;;16.67;13.77;;;16.50;99.90;;;;;;5027720;28;20366;-84
2023/05/08 09:08:57;;;;;;;14.95;12.77;;;16.70;99.90;;;;;;5024406;28;20045;-85
2023/05/08 09:11:23;;;;;;;15.10;12.95;;;16.80;99.90;;;;;;5026279;28;20660;-84
2023/05/08 09:13:50;;;;;;;15.90;13.55;;;16.80;99.90;;;;;;5018839;28;20037;-85
2023/05/08 09:16:17;;;;;;;15.65;13.95;;;16.90;99.90;;;;;;5014577;28;20104;-85
2023/05/08 09:18:43;;;;;;;16.25;13.55;;;17.00;99.90;;;;;;5020051;28;20489;-85
2023/05/08 09:21:08;;;;;;;16.95;14.00;;;17.10;99.90;;;;;;5013674;28;20080;-84
2023/05/08 09:23:35;;;;;;;17.40;12.98;;;17.30;99.90;;;;;;5015298;28;20038;-85
2023/05/08 09:26:01;;;;;;;15.77;14.00;;;17.50;99.90;;;;;;5014565;28;20041;-85
2023/05/08 09:28:27;;;;;;;16.25;13.38;;;17.60;99.90;;;;;;5003405;28;20042;-85
2023/05/08 09:30:54;;;;;;;15.88;13.65;;;17.70;99.90;;;;;;5013846;28;20041;-85
2023/05/08 09:33:21;;;;;;;17.10;14.73;;;17.90;99.90;;;;;;5014939;28;20049;-85
2023/05/08 09:35:47;;;;;;;15.52;13.27;;;17.90;99.90;;;;;;5022493;28;20099;-84
2023/05/08 09:38:36;;;;;;;15.48;13.02;;;18.00;99.90;;;;;;5014759;28;20072;-85
2023/05/08 09:41:14;;;;;;;16.30;14.40;;;18.10;99.90;;;;;;5018934;28;20044;-85
2023/05/08 09:43:42;;;;;;;15.80;14.10;;;18.20;99.90;;;;;;5016893;28;20041;-85
2023/05/08 09:46:25;;;;;;;17.38;14.55;;;18.30;99.90;;;;;;5017760;28;20091;-84
2023/05/08 09:48:56;;;;;;;16.45;14.07;;;18.50;99.90;;;;;;5020742;28;20500;-84
2023/05/08 09:51:24;;;;;;;17.77;14.05;;;18.60;99.90;;;;;;5011752;28;20050;-84
2023/05/08 09:53:55;;;;;;;18.02;14.88;;;18.70;99.90;;;;;;5014788;28;20088;-84
2023/05/08 09:56:40;;;;;;;16.48;13.85;;;18.80;99.90;;;;;;5020143;28;20041;-85
2023/05/08 09:59:28;;;;;;;16.63;14.50;;;19.00;99.90;;;;;;5024345;28;20041;-85
2023/05/08 10:01:57;;;;;;;17.05;15.25;;;19.10;99.90;;;;;;5022586;28;20044;-85
2023/05/08 10:04:33;;;;;;;17.40;14.85;;;19.20;99.90;;;;;;5035187;28;20496;-86
2023/05/08 10:06:59;;;;;;;18.02;16.13;;;19.30;99.90;;;;;;5023002;28;20053;-85
2023/05/08 10:09:27;;;;;;;15.85;14.15;;;19.30;99.90;;;;;;5036182;28;20116;-88
2023/05/08 10:11:54;;;;;;;17.40;15.30;;;19.40;99.90;;;;;;5009639;28;20047;-91
2023/05/08 10:14:23;;;;;;;16.75;14.95;;;19.50;99.90;;;;;;5025272;28;20118;-87
2023/05/08 10:16:51;;;;;;;17.65;15.68;;;19.50;99.90;;;;;;5027048;28;20485;-86
2023/05/08 10:19:22;;;;;;;18.48;15.10;;;19.70;99.90;;;;;;4999626;28;20045;-86
2023/05/08 10:21:50;;;;;;;18.20;16.25;;;19.80;99.90;;;;;;5022412;28;20060;-86
2023/05/08 10:24:27;;;;;;;17.90;15.95;;;19.90;99.90;;;;;;5018934;28;20689;-87
2023/05/08 10:26:56;;;;;;;16.85;14.00;;;20.00;99.90;;;;;;5015184;28;20056;-87
2023/05/08 10:29:43;;;;;;;17.48;15.52;;;20.10;99.90;;;;;;5007398;28;20052;-87
2023/05/08 10:32:09;;;;;;;18.30;15.18;;;20.20;99.90;;;;;;5037753;28;20675;-87
2023/05/08 10:34:39;;;;;;;17.05;15.00;;;20.40;99.90;;;;;;5033787;28;20072;-86
2023/05/08 10:37:08;;;;;;;18.20;16.25;;;20.50;99.90;;;;;;5022673;28;20041;-87
2023/05/08 10:39:34;;;;;;;18.92;15.60;;;20.50;99.90;;;;;;5019531;28;20041;-88
2023/05/08 10:42:00;;;;;;;18.38;16.08;;;20.60;99.90;;;;;;5037074;28;20036;-88
2023/05/08 10:44:27;;;;;;;22.92;16.50;;;20.70;99.90;;;;;;5030496;28;20515;-85
2023/05/08 10:47:11;;;;;;;19.95;16.80;;;20.80;99.90;;;;;;5019662;28;20381;-84
2023/05/08 10:50:14;;;;;;;17.40;14.98;;;21.00;99.90;;;;;;5043714;28;20094;-85
2023/05/08 10:53:19;;;;;;;18.80;16.58;;;21.10;99.90;;;;;;5022168;28;20397;-85
2023/05/08 10:55:49;;;;;;;21.65;16.83;;;21.20;99.90;;;;;;5032209;28;20083;-84
2023/05/08 10:58:29;;;;;;;17.85;15.60;;;21.30;99.90;;;;;;5033056;28;20038;-85
2023/05/08 11:01:03;;;;;;;18.40;16.27;;;21.50;99.90;;;;;;5034017;28;20034;-85
2023/05/08 11:03:30;;;;;;;;;;;21.60;99.90;;;;;;5026782;28;20526;-85
2023/05/08 11:05:57;;;;;;;18.30;16.38;;;21.70;99.90;;;;;;5019547;28;19927;-85
2023/05/08 11:08:26;;;;;;;19.10;17.08;;;21.80;99.90;;;;;;5040137;28;20178;-85
2023/05/08 11:11:00;;;;;;;17.67;15.88;;;21.70;99.90;;;;;;5019649;28;20045;-85
2023/05/08 11:13:48;;;;;;;17.88;15.80;;;21.70;99.90;;;;;;5037889;28;20037;-85
2023/05/08 11:16:14;;;;;;;21.42;16.73;;;21.80;99.90;;;;;;5022255;28;20506;-83
2023/05/08 11:19:16;;;;;;;18.83;15.82;;;21.80;99.90;;;;;;5019396;28;20041;-89
2023/05/08 11:22:10;;;;;;;17.63;15.73;;;21.90;99.90;;;;;;5008412;28;20049;-89
2023/05/08 11:24:37;;;;;;;20.05;15.52;;;22.10;99.90;;;;;;5036005;28;20120;-87
2023/05/08 11:27:03;;;;;;;16.95;15.15;;;22.20;99.90;;;;;;5021716;28;20052;-88
2023/05/08 11:29:29;;;;;;;19.27;17.08;;;22.20;99.90;;;;;;5023963;28;20041;-86
2023/05/08 11:31:54;;;;;;;18.48;16.58;;;22.20;99.90;;;;;;5025657;28;20091;-87
2023/05/08 11:34:44;;;;;;;18.23;14.70;;;22.20;99.90;;;;;;5022179;28;20045;-86
2023/05/08 11:37:15;;;;;;;18.65;16.67;;;22.30;99.90;;;;;;5006199;28;20863;-85
2023/05/08 11:39:41;;;;;;;20.38;16.30;;;22.30;99.90;;;;;;5021431;28;20404;-86
2023/05/08 11:42:25;;;;;;;17.15;15.35;;;22.40;99.90;;;;;;5027944;28;20033;-87
2023/05/08 11:45:13;;;;;;;17.45;15.23;;;22.50;99.90;;;;;;5004111;28;20041;-89
2023/05/08 11:47:42;;;;;;;17.80;14.98;;;22.60;99.90;;;;;;5041000;28;20068;-89
2023/05/08 11:50:09;;;;;;;18.75;16.50;;;22.70;99.90;;;;;;5044242;28;20507;-88
2023/05/08 11:52:40;;;;;;;20.35;17.70;;;22.80;99.90;;;;;;5037906;28;20064;-88
2023/05/08 11:55:07;;;;;;;17.35;15.50;;;22.90;99.90;;;;;;5042518;28;20029;-87
2023/05/08 11:57:33;;;;;;;18.95;16.33;;;22.90;99.90;;;;;;5027275;28;20496;-89
2023/05/08 12:00:05;;;;;;;17.27;15.48;;;23.00;99.90;;;;;;5039247;28;20128;-88
2023/05/08 12:02:49;;;;;;;22.23;16.30;;;23.00;99.90;;;;;;5013822;28;20132;-89
2023/05/08 12:05:25;;;;;;;18.08;15.05;;;23.20;99.90;;;;;;5012830;28;20045;-89
2023/05/08 12:07:51;;;;;;;17.08;14.40;;;23.30;99.90;;;;;;5016204;28;20038;-88
2023/05/08 12:10:16;;;;;;;17.48;15.60;;;23.50;99.90;;;;;;5013799;28;20049;-87
2023/05/08 12:12:43;;;;;;;19.45;15.40;;;23.60;99.90;;;;;;5013412;28;20138;-85
2023/05/08 12:15:12;;;;;;;18.10;15.32;;;23.60;99.90;;;;;;5019891;28;20072;-85
2023/05/08 12:17:38;;;;;;;19.48;15.35;;;23.50;99.90;;;;;;5006716;28;20506;-85
2023/05/08 12:20:16;;;;;;;18.67;16.75;;;23.60;99.90;;;;;;5003119;28;20045;-84
2023/05/08 12:22:48;;;;;;;21.00;16.73;;;23.70;99.90;;;;;;5021367;28;20046;-84
2023/05/08 12:25:16;;;;;;;17.45;15.55;;;23.80;99.90;;;;;;5021872;28;20385;-85
2023/05/08 12:27:42;;;;;;;15.95;14.23;;;23.90;99.90;;;;;;5018678;28;20077;-83
2023/05/08 12:30:12;;;;;;;17.85;13.65;;;24.00;99.90;;;;;;5031347;28;20046;-87
2023/05/08 12:32:42;;;;;;;16.20;14.50;;;24.00;99.90;;;;;;5019724;28;20569;-86
2023/05/08 12:35:09;;;;;;;15.60;13.85;;;24.00;99.90;;;;;;5021896;28;20048;-85
2023/05/08 12:37:35;;;;;;;16.30;12.90;;;24.10;99.90;;;;;;5025937;28;20562;-86
2023/05/08 12:40:02;;;;;;;16.13;12.32;;;24.10;99.90;;;;;;5020475;28;20046;-86
2023/05/08 12:43:03;;;;;;;15.55;12.50;;;24.10;99.90;;;;;;5012667;28;20049;-87